sensor_id;sensor_type;location;lat;lon;timestamp;P1;durP1;ratioP1;P2;durP2;ratioP2
17598;SDS011;8918;52.092;5.232;2022-08-06T00:00:38;4.15;;;2.10;;
17598;SDS011;8918;52.092;5.232;2022-08-06T00:03:07;4.47;;;2.50;;
17598;SDS011;8918;52.092;5.232;2022-08-06T00:05:33;4.93;;;2.30;;
17598;SDS011;8918;52.092;5.232;2022-08-06T00:07:58;3.30;;;2.10;;
17598;SDS011;8918;52.092;5.232;2022-08-06T00:10:24;5.57;;;2.30;;
17598;SDS011;8918;52.092;5.232;2022-08-06T00:12:50;3.78;;;2.10;;
17598;SDS011;8918;52.092;5.232;2022-08-06T00:15:16;5.20;;;2.30;;
17598;SDS011;8918;52.092;5.232;2022-08-06T00:17:43;3.65;;;2.22;;
17598;SDS011;8918;52.092;5.232;2022-08-06T00:20:10;4.20;;;2.33;;
17598;SDS011;8918;52.092;5.232;2022-08-06T00:22:37;4.63;;;2.65;;
17598;SDS011;8918;52.092;5.232;2022-08-06T00:25:03;4.57;;;2.47;;
17598;SDS011;8918;52.092;5.232;2022-08-06T00:27:29;4.43;;;2.37;;
17598;SDS011;8918;52.092;5.232;2022-08-06T00:29:55;4.63;;;2.10;;
17598;SDS011;8918;52.092;5.232;2022-08-06T00:32:21;5.45;;;2.55;;
17598;SDS011;8918;52.092;5.232;2022-08-06T00:34:46;3.33;;;2.20;;
17598;SDS011;8918;52.092;5.232;2022-08-06T00:37:12;4.20;;;2.28;;
17598;SDS011;8918;52.092;5.232;2022-08-06T00:39:37;6.18;;;2.28;;
17598;SDS011;8918;52.092;5.232;2022-08-06T00:42:03;4.70;;;2.03;;
17598;SDS011;8918;52.092;5.232;2022-08-06T00:44:29;3.78;;;2.10;;
17598;SDS011;8918;52.092;5.232;2022-08-06T00:46:54;4.88;;;2.10;;
17598;SDS011;8918;52.092;5.232;2022-08-06T00:49:20;3.67;;;1.92;;
17598;SDS011;8918;52.092;5.232;2022-08-06T00:51:46;3.20;;;2.07;;
17598;SDS011;8918;52.092;5.232;2022-08-06T00:54:12;6.28;;;2.20;;
17598;SDS011;8918;52.092;5.232;2022-08-06T00:56:37;5.47;;;1.98;;
17598;SDS011;8918;52.092;5.232;2022-08-06T00:59:03;4.13;;;2.10;;
17598;SDS011;8918;52.092;5.232;2022-08-06T01:01:30;3.25;;;2.00;;
17598;SDS011;8918;52.092;5.232;2022-08-06T01:03:56;3.57;;;2.27;;
17598;SDS011;8918;52.092;5.232;2022-08-06T01:06:22;4.97;;;2.40;;
17598;SDS011;8918;52.092;5.232;2022-08-06T01:08:47;4.00;;;2.60;;
17598;SDS011;8918;52.092;5.232;2022-08-06T01:11:13;5.72;;;2.55;;
17598;SDS011;8918;52.092;5.232;2022-08-06T01:13:39;4.93;;;2.30;;
17598;SDS011;8918;52.092;5.232;2022-08-06T01:16:10;4.83;;;2.33;;
17598;SDS011;8918;52.092;5.232;2022-08-06T01:19:01;3.77;;;2.30;;
17598;SDS011;8918;52.092;5.232;2022-08-06T01:21:38;3.93;;;2.30;;
17598;SDS011;8918;52.092;5.232;2022-08-06T01:24:21;6.43;;;2.93;;
17598;SDS011;8918;52.092;5.232;2022-08-06T01:29:24;3.83;;;2.27;;
17598;SDS011;8918;52.092;5.232;2022-08-06T01:34:32;5.13;;;2.43;;
17598;SDS011;8918;52.092;5.232;2022-08-06T01:37:17;4.97;;;2.60;;
17598;SDS011;8918;52.092;5.232;2022-08-06T01:39:47;4.43;;;2.50;;
17598;SDS011;8918;52.092;5.232;2022-08-06T01:42:26;8.37;;;2.87;;
17598;SDS011;8918;52.092;5.232;2022-08-06T01:44:55;4.87;;;2.90;;
17598;SDS011;8918;52.092;5.232;2022-08-06T01:47:26;4.00;;;2.70;;
17598;SDS011;8918;52.092;5.232;2022-08-06T01:49:55;4.43;;;2.77;;
17598;SDS011;8918;52.092;5.232;2022-08-06T01:52:24;5.47;;;2.57;;
17598;SDS011;8918;52.092;5.232;2022-08-06T01:54:52;6.13;;;2.30;;
17598;SDS011;8918;52.092;5.232;2022-08-06T01:57:23;4.47;;;2.33;;
17598;SDS011;8918;52.092;5.232;2022-08-06T01:59:50;3.87;;;2.20;;
17598;SDS011;8918;52.092;5.232;2022-08-06T02:02:19;5.03;;;2.30;;
17598;SDS011;8918;52.092;5.232;2022-08-06T02:04:47;4.10;;;2.30;;
17598;SDS011;8918;52.092;5.232;2022-08-06T02:07:17;5.03;;;2.50;;
17598;SDS011;8918;52.092;5.232;2022-08-06T02:09:47;4.43;;;2.60;;
17598;SDS011;8918;52.092;5.232;2022-08-06T02:12:17;7.23;;;2.90;;
17598;SDS011;8918;52.092;5.232;2022-08-06T02:14:46;4.47;;;2.80;;
17598;SDS011;8918;52.092;5.232;2022-08-06T02:17:17;5.83;;;2.80;;
17598;SDS011;8918;52.092;5.232;2022-08-06T02:19:47;5.60;;;2.93;;
17598;SDS011;8918;52.092;5.232;2022-08-06T02:22:19;5.80;;;2.73;;
17598;SDS011;8918;52.092;5.232;2022-08-06T02:24:46;6.57;;;2.30;;
17598;SDS011;8918;52.092;5.232;2022-08-06T02:27:12;5.30;;;2.50;;
17598;SDS011;8918;52.092;5.232;2022-08-06T02:29:40;4.40;;;2.60;;
17598;SDS011;8918;52.092;5.232;2022-08-06T02:32:06;8.17;;;2.70;;
17598;SDS011;8918;52.092;5.232;2022-08-06T02:34:33;3.40;;;2.23;;
17598;SDS011;8918;52.092;5.232;2022-08-06T02:37:20;4.30;;;2.30;;
17598;SDS011;8918;52.092;5.232;2022-08-06T02:39:56;4.27;;;2.20;;
17598;SDS011;8918;52.092;5.232;2022-08-06T02:45:05;4.43;;;2.20;;
17598;SDS011;8918;52.092;5.232;2022-08-06T02:50:31;4.27;;;2.27;;
17598;SDS011;8918;52.092;5.232;2022-08-06T02:53:02;3.97;;;2.10;;
17598;SDS011;8918;52.092;5.232;2022-08-06T02:55:34;4.83;;;2.10;;
17598;SDS011;8918;52.092;5.232;2022-08-06T02:58:08;3.70;;;2.30;;
17598;SDS011;8918;52.092;5.232;2022-08-06T03:00:39;4.30;;;2.10;;
17598;SDS011;8918;52.092;5.232;2022-08-06T03:03:07;4.47;;;2.00;;
17598;SDS011;8918;52.092;5.232;2022-08-06T03:05:33;4.63;;;2.10;;
17598;SDS011;8918;52.092;5.232;2022-08-06T03:08:01;3.93;;;2.00;;
17598;SDS011;8918;52.092;5.232;2022-08-06T03:10:30;3.83;;;2.00;;
17598;SDS011;8918;52.092;5.232;2022-08-06T03:12:58;3.90;;;1.80;;
17598;SDS011;8918;52.092;5.232;2022-08-06T03:15:25;2.77;;;1.90;;
17598;SDS011;8918;52.092;5.232;2022-08-06T03:17:54;3.53;;;1.77;;
17598;SDS011;8918;52.092;5.232;2022-08-06T03:20:24;3.67;;;1.93;;
17598;SDS011;8918;52.092;5.232;2022-08-06T03:22:51;3.63;;;1.93;;
17598;SDS011;8918;52.092;5.232;2022-08-06T03:25:19;3.73;;;2.10;;
17598;SDS011;8918;52.092;5.232;2022-08-06T03:27:46;5.10;;;2.10;;
17598;SDS011;8918;52.092;5.232;2022-08-06T03:30:17;2.60;;;1.80;;
17598;SDS011;8918;52.092;5.232;2022-08-06T03:32:45;4.53;;;2.00;;
17598;SDS011;8918;52.092;5.232;2022-08-06T03:35:11;4.27;;;1.93;;
17598;SDS011;8918;52.092;5.232;2022-08-06T03:37:38;4.47;;;1.90;;
17598;SDS011;8918;52.092;5.232;2022-08-06T03:40:05;3.20;;;1.63;;
17598;SDS011;8918;52.092;5.232;2022-08-06T03:42:33;3.93;;;1.90;;
17598;SDS011;8918;52.092;5.232;2022-08-06T03:44:59;3.67;;;1.93;;
17598;SDS011;8918;52.092;5.232;2022-08-06T03:47:26;2.57;;;1.80;;
17598;SDS011;8918;52.092;5.232;2022-08-06T03:50:04;4.07;;;1.90;;
17598;SDS011;8918;52.092;5.232;2022-08-06T03:52:36;5.87;;;2.03;;
17598;SDS011;8918;52.092;5.232;2022-08-06T03:55:05;3.37;;;1.90;;
17598;SDS011;8918;52.092;5.232;2022-08-06T03:57:41;3.33;;;1.90;;
17598;SDS011;8918;52.092;5.232;2022-08-06T04:00:12;2.30;;;1.70;;
17598;SDS011;8918;52.092;5.232;2022-08-06T04:02:40;2.77;;;1.80;;
17598;SDS011;8918;52.092;5.232;2022-08-06T04:05:09;2.50;;;1.70;;
17598;SDS011;8918;52.092;5.232;2022-08-06T04:07:36;4.20;;;2.20;;
17598;SDS011;8918;52.092;5.232;2022-08-06T04:10:03;4.17;;;1.90;;
17598;SDS011;8918;52.092;5.232;2022-08-06T04:12:30;3.40;;;1.93;;
17598;SDS011;8918;52.092;5.232;2022-08-06T04:14:56;4.30;;;1.90;;
17598;SDS011;8918;52.092;5.232;2022-08-06T04:17:22;3.40;;;2.30;;
17598;SDS011;8918;52.092;5.232;2022-08-06T04:19:49;3.13;;;1.97;;
17598;SDS011;8918;52.092;5.232;2022-08-06T04:22:17;2.87;;;1.73;;
17598;SDS011;8918;52.092;5.232;2022-08-06T04:24:43;8.03;;;2.10;;
17598;SDS011;8918;52.092;5.232;2022-08-06T04:27:09;3.30;;;1.70;;
17598;SDS011;8918;52.092;5.232;2022-08-06T04:29:36;4.70;;;2.00;;
17598;SDS011;8918;52.092;5.232;2022-08-06T04:32:03;5.20;;;2.03;;
17598;SDS011;8918;52.092;5.232;2022-08-06T04:34:31;4.17;;;1.87;;
17598;SDS011;8918;52.092;5.232;2022-08-06T04:36:59;4.27;;;2.30;;
17598;SDS011;8918;52.092;5.232;2022-08-06T04:39:26;3.13;;;1.97;;
17598;SDS011;8918;52.092;5.232;2022-08-06T04:41:53;2.23;;;1.80;;
17598;SDS011;8918;52.092;5.232;2022-08-06T04:44:20;2.90;;;2.10;;
17598;SDS011;8918;52.092;5.232;2022-08-06T04:46:46;2.90;;;2.00;;
17598;SDS011;8918;52.092;5.232;2022-08-06T04:49:15;4.37;;;2.20;;
17598;SDS011;8918;52.092;5.232;2022-08-06T04:51:44;3.13;;;2.00;;
17598;SDS011;8918;52.092;5.232;2022-08-06T04:54:13;2.63;;;1.97;;
17598;SDS011;8918;52.092;5.232;2022-08-06T04:56:39;3.77;;;1.97;;
17598;SDS011;8918;52.092;5.232;2022-08-06T04:59:05;3.13;;;1.93;;
17598;SDS011;8918;52.092;5.232;2022-08-06T05:01:31;2.57;;;1.80;;
17598;SDS011;8918;52.092;5.232;2022-08-06T05:03:57;2.63;;;1.73;;
17598;SDS011;8918;52.092;5.232;2022-08-06T05:09:13;6.13;;;2.20;;
17598;SDS011;8918;52.092;5.232;2022-08-06T05:11:43;5.67;;;2.20;;
17598;SDS011;8918;52.092;5.232;2022-08-06T05:14:21;3.03;;;1.87;;
17598;SDS011;8918;52.092;5.232;2022-08-06T05:16:56;2.93;;;2.30;;
17598;SDS011;8918;52.092;5.232;2022-08-06T05:19:36;4.57;;;1.97;;
17598;SDS011;8918;52.092;5.232;2022-08-06T05:22:07;3.83;;;2.17;;
17598;SDS011;8918;52.092;5.232;2022-08-06T05:24:35;2.90;;;2.00;;
17598;SDS011;8918;52.092;5.232;2022-08-06T05:27:01;3.00;;;1.97;;
17598;SDS011;8918;52.092;5.232;2022-08-06T05:29:27;2.57;;;2.00;;
17598;SDS011;8918;52.092;5.232;2022-08-06T05:31:57;3.77;;;1.90;;
17598;SDS011;8918;52.092;5.232;2022-08-06T05:34:24;2.50;;;2.10;;
17598;SDS011;8918;52.092;5.232;2022-08-06T05:36:49;2.80;;;2.00;;
17598;SDS011;8918;52.092;5.232;2022-08-06T05:39:15;3.97;;;2.17;;
17598;SDS011;8918;52.092;5.232;2022-08-06T05:41:41;4.27;;;2.23;;
17598;SDS011;8918;52.092;5.232;2022-08-06T05:44:07;4.50;;;2.37;;
17598;SDS011;8918;52.092;5.232;2022-08-06T05:46:34;5.57;;;2.60;;
17598;SDS011;8918;52.092;5.232;2022-08-06T05:49:09;5.07;;;2.47;;
17598;SDS011;8918;52.092;5.232;2022-08-06T05:51:40;5.23;;;2.43;;
17598;SDS011;8918;52.092;5.232;2022-08-06T05:54:27;3.17;;;2.37;;
17598;SDS011;8918;52.092;5.232;2022-08-06T05:57:06;5.67;;;2.37;;
17598;SDS011;8918;52.092;5.232;2022-08-06T05:59:38;2.90;;;2.10;;
17598;SDS011;8918;52.092;5.232;2022-08-06T06:02:08;4.20;;;2.17;;
17598;SDS011;8918;52.092;5.232;2022-08-06T06:04:36;3.77;;;2.33;;
17598;SDS011;8918;52.092;5.232;2022-08-06T06:07:02;2.83;;;1.97;;
17598;SDS011;8918;52.092;5.232;2022-08-06T06:09:28;3.80;;;2.10;;
17598;SDS011;8918;52.092;5.232;2022-08-06T06:11:54;2.73;;;1.73;;
17598;SDS011;8918;52.092;5.232;2022-08-06T06:16:55;3.17;;;2.03;;
17598;SDS011;8918;52.092;5.232;2022-08-06T06:20:09;3.40;;;1.80;;
17598;SDS011;8918;52.092;5.232;2022-08-06T06:22:57;4.20;;;1.87;;
17598;SDS011;8918;52.092;5.232;2022-08-06T06:25:33;4.00;;;1.60;;
17598;SDS011;8918;52.092;5.232;2022-08-06T06:28:05;3.03;;;1.70;;
17598;SDS011;8918;52.092;5.232;2022-08-06T06:33:37;3.00;;;1.45;;
17598;SDS011;8918;52.092;5.232;2022-08-06T06:36:11;5.68;;;1.67;;
17598;SDS011;8918;52.092;5.232;2022-08-06T06:38:57;3.45;;;1.65;;
17598;SDS011;8918;52.092;5.232;2022-08-06T06:41:39;4.63;;;1.45;;
17598;SDS011;8918;52.092;5.232;2022-08-06T06:47:02;3.63;;;1.30;;
17598;SDS011;8918;52.092;5.232;2022-08-06T06:49:42;1.77;;;1.23;;
17598;SDS011;8918;52.092;5.232;2022-08-06T06:54:52;3.13;;;1.15;;
17598;SDS011;8918;52.092;5.232;2022-08-06T06:57:25;2.20;;;1.00;;
17598;SDS011;8918;52.092;5.232;2022-08-06T06:59:56;3.92;;;1.23;;
17598;SDS011;8918;52.092;5.232;2022-08-06T07:02:26;2.90;;;1.00;;
17598;SDS011;8918;52.092;5.232;2022-08-06T07:04:55;2.85;;;1.05;;
17598;SDS011;8918;52.092;5.232;2022-08-06T07:07:21;5.05;;;1.48;;
17598;SDS011;8918;52.092;5.232;2022-08-06T07:09:48;4.40;;;1.20;;
17598;SDS011;8918;52.092;5.232;2022-08-06T07:12:15;2.85;;;1.08;;
17598;SDS011;8918;52.092;5.232;2022-08-06T07:14:45;3.13;;;0.95;;
17598;SDS011;8918;52.092;5.232;2022-08-06T07:17:12;3.83;;;1.20;;
17598;SDS011;8918;52.092;5.232;2022-08-06T07:19:43;2.42;;;1.20;;
17598;SDS011;8918;52.092;5.232;2022-08-06T07:22:10;2.30;;;1.10;;
17598;SDS011;8918;52.092;5.232;2022-08-06T07:24:36;3.90;;;1.13;;
17598;SDS011;8918;52.092;5.232;2022-08-06T07:27:03;3.45;;;1.23;;
17598;SDS011;8918;52.092;5.232;2022-08-06T07:29:29;2.65;;;1.10;;
17598;SDS011;8918;52.092;5.232;2022-08-06T07:31:55;3.28;;;1.30;;
17598;SDS011;8918;52.092;5.232;2022-08-06T07:34:23;2.35;;;1.20;;
17598;SDS011;8918;52.092;5.232;2022-08-06T07:36:52;3.85;;;1.23;;
17598;SDS011;8918;52.092;5.232;2022-08-06T07:39:23;1.98;;;1.10;;
17598;SDS011;8918;52.092;5.232;2022-08-06T07:41:53;1.63;;;0.80;;
17598;SDS011;8918;52.092;5.232;2022-08-06T07:44:22;2.10;;;1.00;;
17598;SDS011;8918;52.092;5.232;2022-08-06T07:46:52;1.63;;;0.90;;
17598;SDS011;8918;52.092;5.232;2022-08-06T07:49:24;2.10;;;0.98;;
17598;SDS011;8918;52.092;5.232;2022-08-06T07:51:55;4.07;;;1.10;;
17598;SDS011;8918;52.092;5.232;2022-08-06T07:54:23;1.75;;;1.08;;
17598;SDS011;8918;52.092;5.232;2022-08-06T07:56:50;3.13;;;1.13;;
17598;SDS011;8918;52.092;5.232;2022-08-06T07:59:17;1.73;;;0.90;;
17598;SDS011;8918;52.092;5.232;2022-08-06T08:01:43;2.38;;;1.17;;
17598;SDS011;8918;52.092;5.232;2022-08-06T08:04:09;4.25;;;1.13;;
17598;SDS011;8918;52.092;5.232;2022-08-06T08:06:59;2.00;;;1.00;;
17598;SDS011;8918;52.092;5.232;2022-08-06T08:09:27;2.88;;;1.10;;
17598;SDS011;8918;52.092;5.232;2022-08-06T08:11:54;3.05;;;1.10;;
17598;SDS011;8918;52.092;5.232;2022-08-06T08:14:22;3.90;;;1.10;;
17598;SDS011;8918;52.092;5.232;2022-08-06T08:16:49;3.42;;;1.20;;
17598;SDS011;8918;52.092;5.232;2022-08-06T08:19:19;1.80;;;1.13;;
17598;SDS011;8918;52.092;5.232;2022-08-06T08:21:53;2.15;;;1.05;;
17598;SDS011;8918;52.092;5.232;2022-08-06T08:24:21;3.95;;;1.10;;
17598;SDS011;8918;52.092;5.232;2022-08-06T08:26:47;2.92;;;1.05;;
17598;SDS011;8918;52.092;5.232;2022-08-06T08:29:13;2.50;;;1.10;;
17598;SDS011;8918;52.092;5.232;2022-08-06T08:31:38;2.50;;;0.98;;
17598;SDS011;8918;52.092;5.232;2022-08-06T08:34:04;2.45;;;1.20;;
17598;SDS011;8918;52.092;5.232;2022-08-06T08:36:31;2.85;;;0.98;;
17598;SDS011;8918;52.092;5.232;2022-08-06T08:38:57;2.10;;;1.02;;
17598;SDS011;8918;52.092;5.232;2022-08-06T08:41:27;1.58;;;0.90;;
17598;SDS011;8918;52.092;5.232;2022-08-06T08:44:03;3.50;;;1.10;;
17598;SDS011;8918;52.092;5.232;2022-08-06T08:46:34;1.77;;;1.00;;
17598;SDS011;8918;52.092;5.232;2022-08-06T08:49:06;1.77;;;0.80;;
17598;SDS011;8918;52.092;5.232;2022-08-06T08:51:42;1.95;;;0.95;;
17598;SDS011;8918;52.092;5.232;2022-08-06T08:54:11;2.25;;;0.93;;
17598;SDS011;8918;52.092;5.232;2022-08-06T08:56:40;1.77;;;1.10;;
17598;SDS011;8918;52.092;5.232;2022-08-06T08:59:06;2.03;;;0.90;;
17598;SDS011;8918;52.092;5.232;2022-08-06T09:01:35;1.02;;;0.80;;
17598;SDS011;8918;52.092;5.232;2022-08-06T09:04:03;2.67;;;0.90;;
17598;SDS011;8918;52.092;5.232;2022-08-06T09:06:30;1.77;;;0.85;;
17598;SDS011;8918;52.092;5.232;2022-08-06T09:08:57;2.47;;;0.95;;
17598;SDS011;8918;52.092;5.232;2022-08-06T09:11:28;1.10;;;0.60;;
17598;SDS011;8918;52.092;5.232;2022-08-06T09:14:01;0.80;;;0.70;;
17598;SDS011;8918;52.092;5.232;2022-08-06T09:16:28;1.20;;;0.80;;
17598;SDS011;8918;52.092;5.232;2022-08-06T09:18:54;1.73;;;0.80;;
17598;SDS011;8918;52.092;5.232;2022-08-06T09:21:20;1.52;;;0.80;;
17598;SDS011;8918;52.092;5.232;2022-08-06T09:23:45;2.55;;;0.88;;
17598;SDS011;8918;52.092;5.232;2022-08-06T09:26:11;3.00;;;0.70;;
17598;SDS011;8918;52.092;5.232;2022-08-06T09:28:38;1.40;;;0.80;;
17598;SDS011;8918;52.092;5.232;2022-08-06T09:33:36;1.73;;;0.80;;
17598;SDS011;8918;52.092;5.232;2022-08-06T09:38:44;1.58;;;0.85;;
17598;SDS011;8918;52.092;5.232;2022-08-06T09:41:11;0.90;;;0.70;;
17598;SDS011;8918;52.092;5.232;2022-08-06T09:43:37;2.45;;;0.90;;
17598;SDS011;8918;52.092;5.232;2022-08-06T09:46:04;1.90;;;0.77;;
17598;SDS011;8918;52.092;5.232;2022-08-06T09:48:31;0.90;;;0.60;;
17598;SDS011;8918;52.092;5.232;2022-08-06T09:50:57;2.25;;;0.70;;
17598;SDS011;8918;52.092;5.232;2022-08-06T09:53:23;2.35;;;0.60;;
17598;SDS011;8918;52.092;5.232;2022-08-06T09:55:50;1.35;;;0.77;;
17598;SDS011;8918;52.092;5.232;2022-08-06T09:58:29;1.58;;;0.80;;
17598;SDS011;8918;52.092;5.232;2022-08-06T10:01:20;1.20;;;0.70;;
17598;SDS011;8918;52.092;5.232;2022-08-06T10:03:46;1.83;;;0.70;;
17598;SDS011;8918;52.092;5.232;2022-08-06T10:06:13;2.50;;;0.60;;
17598;SDS011;8918;52.092;5.232;2022-08-06T10:08:42;2.03;;;0.70;;
17598;SDS011;8918;52.092;5.232;2022-08-06T10:11:08;1.83;;;0.60;;
17598;SDS011;8918;52.092;5.232;2022-08-06T10:13:34;1.00;;;0.60;;
17598;SDS011;8918;52.092;5.232;2022-08-06T10:16:14;2.03;;;0.70;;
17598;SDS011;8918;52.092;5.232;2022-08-06T10:18:45;2.15;;;0.70;;
17598;SDS011;8918;52.092;5.232;2022-08-06T10:21:14;1.05;;;0.65;;
17598;SDS011;8918;52.092;5.232;2022-08-06T10:23:44;2.17;;;0.77;;
17598;SDS011;8918;52.092;5.232;2022-08-06T10:26:12;2.05;;;0.80;;
17598;SDS011;8918;52.092;5.232;2022-08-06T10:28:39;1.27;;;0.70;;
17598;SDS011;8918;52.092;5.232;2022-08-06T10:31:08;2.15;;;0.80;;
17598;SDS011;8918;52.092;5.232;2022-08-06T10:36:08;1.00;;;0.70;;
17598;SDS011;8918;52.092;5.232;2022-08-06T10:38:37;1.65;;;0.85;;
17598;SDS011;8918;52.092;5.232;2022-08-06T10:41:08;3.97;;;0.75;;
17598;SDS011;8918;52.092;5.232;2022-08-06T10:43:36;3.17;;;0.85;;
17598;SDS011;8918;52.092;5.232;2022-08-06T10:46:06;2.90;;;0.70;;
17598;SDS011;8918;52.092;5.232;2022-08-06T10:48:36;0.75;;;0.73;;
17598;SDS011;8918;52.092;5.232;2022-08-06T10:51:04;1.10;;;0.60;;
17598;SDS011;8918;52.092;5.232;2022-08-06T10:53:32;2.67;;;0.90;;
17598;SDS011;8918;52.092;5.232;2022-08-06T10:56:03;3.13;;;0.80;;
17598;SDS011;8918;52.092;5.232;2022-08-06T10:58:30;2.75;;;0.80;;
17598;SDS011;8918;52.092;5.232;2022-08-06T11:00:58;5.90;;;1.00;;
17598;SDS011;8918;52.092;5.232;2022-08-06T11:03:50;1.08;;;0.75;;
17598;SDS011;8918;52.092;5.232;2022-08-06T11:15:19;2.20;;;0.85;;
17598;SDS011;8918;52.092;5.232;2022-08-06T11:17:55;1.77;;;0.68;;
17598;SDS011;8918;52.092;5.232;2022-08-06T11:22:57;0.70;;;0.60;;
17598;SDS011;8918;52.092;5.232;2022-08-06T11:25:38;2.13;;;0.80;;
17598;SDS011;8918;52.092;5.232;2022-08-06T11:28:20;2.67;;;0.90;;
17598;SDS011;8918;52.092;5.232;2022-08-06T11:31:06;3.25;;;0.90;;
17598;SDS011;8918;52.092;5.232;2022-08-06T11:35:58;1.27;;;0.50;;
17598;SDS011;8918;52.092;5.232;2022-08-06T11:46:26;1.00;;;0.60;;
17598;SDS011;8918;52.092;5.232;2022-08-06T11:51:39;1.95;;;0.70;;
17598;SDS011;8918;52.092;5.232;2022-08-06T11:54:15;2.28;;;0.80;;
17598;SDS011;8918;52.092;5.232;2022-08-06T12:02:10;1.23;;;0.63;;
17598;SDS011;8918;52.092;5.232;2022-08-06T12:04:59;2.92;;;0.82;;
17598;SDS011;8918;52.092;5.232;2022-08-06T12:07:27;1.67;;;0.80;;
17598;SDS011;8918;52.092;5.232;2022-08-06T12:15:04;2.25;;;0.70;;
17598;SDS011;8918;52.092;5.232;2022-08-06T12:23:01;1.88;;;1.02;;
17598;SDS011;8918;52.092;5.232;2022-08-06T12:25:29;0.82;;;0.80;;
17598;SDS011;8918;52.092;5.232;2022-08-06T12:27:59;1.65;;;0.90;;
17598;SDS011;8918;52.092;5.232;2022-08-06T12:30:25;1.15;;;0.70;;
17598;SDS011;8918;52.092;5.232;2022-08-06T12:33:00;2.28;;;0.93;;
17598;SDS011;8918;52.092;5.232;2022-08-06T12:35:26;1.55;;;0.90;;
17598;SDS011;8918;52.092;5.232;2022-08-06T12:37:52;1.35;;;0.80;;
17598;SDS011;8918;52.092;5.232;2022-08-06T12:40:19;1.67;;;1.00;;
17598;SDS011;8918;52.092;5.232;2022-08-06T12:42:51;3.47;;;1.02;;
17598;SDS011;8918;52.092;5.232;2022-08-06T12:45:20;2.88;;;0.93;;
17598;SDS011;8918;52.092;5.232;2022-08-06T12:47:56;2.00;;;0.80;;
17598;SDS011;8918;52.092;5.232;2022-08-06T12:50:34;1.60;;;0.90;;
17598;SDS011;8918;52.092;5.232;2022-08-06T12:53:12;2.03;;;0.90;;
17598;SDS011;8918;52.092;5.232;2022-08-06T12:55:44;2.05;;;0.90;;
17598;SDS011;8918;52.092;5.232;2022-08-06T12:58:12;1.95;;;0.90;;
17598;SDS011;8918;52.092;5.232;2022-08-06T13:00:41;2.33;;;0.88;;
17598;SDS011;8918;52.092;5.232;2022-08-06T13:03:11;1.83;;;0.90;;
17598;SDS011;8918;52.092;5.232;2022-08-06T13:05:37;1.17;;;0.90;;
17598;SDS011;8918;52.092;5.232;2022-08-06T13:08:03;2.05;;;1.00;;
17598;SDS011;8918;52.092;5.232;2022-08-06T13:10:29;1.70;;;0.77;;
17598;SDS011;8918;52.092;5.232;2022-08-06T13:13:01;0.90;;;0.82;;
17598;SDS011;8918;52.092;5.232;2022-08-06T13:15:29;1.50;;;0.80;;
17598;SDS011;8918;52.092;5.232;2022-08-06T13:18:10;1.98;;;0.73;;
17598;SDS011;8918;52.092;5.232;2022-08-06T13:23:10;1.50;;;0.90;;
17598;SDS011;8918;52.092;5.232;2022-08-06T13:28:16;0.75;;;0.70;;
17598;SDS011;8918;52.092;5.232;2022-08-06T13:30:43;1.83;;;0.73;;
17598;SDS011;8918;52.092;5.232;2022-08-06T13:33:10;1.88;;;0.80;;
17598;SDS011;8918;52.092;5.232;2022-08-06T13:35:36;1.05;;;0.70;;
17598;SDS011;8918;52.092;5.232;2022-08-06T13:38:01;1.05;;;0.82;;
17598;SDS011;8918;52.092;5.232;2022-08-06T13:40:47;1.55;;;0.80;;
17598;SDS011;8918;52.092;5.232;2022-08-06T13:43:14;1.00;;;0.80;;
17598;SDS011;8918;52.092;5.232;2022-08-06T13:45:39;1.55;;;0.90;;
17598;SDS011;8918;52.092;5.232;2022-08-06T13:50:36;1.52;;;0.80;;
17598;SDS011;8918;52.092;5.232;2022-08-06T13:53:07;1.55;;;0.80;;
17598;SDS011;8918;52.092;5.232;2022-08-06T13:55:33;1.38;;;0.90;;
17598;SDS011;8918;52.092;5.232;2022-08-06T13:57:59;1.67;;;0.90;;
17598;SDS011;8918;52.092;5.232;2022-08-06T14:00:25;1.80;;;0.70;;
17598;SDS011;8918;52.092;5.232;2022-08-06T14:02:52;3.05;;;1.00;;
17598;SDS011;8918;52.092;5.232;2022-08-06T14:05:19;1.20;;;0.80;;
17598;SDS011;8918;52.092;5.232;2022-08-06T14:07:45;1.40;;;0.88;;
17598;SDS011;8918;52.092;5.232;2022-08-06T14:10:11;1.80;;;0.85;;
17598;SDS011;8918;52.092;5.232;2022-08-06T14:12:37;2.30;;;0.90;;
17598;SDS011;8918;52.092;5.232;2022-08-06T14:15:04;1.73;;;1.00;;
17598;SDS011;8918;52.092;5.232;2022-08-06T14:17:30;1.90;;;1.00;;
17598;SDS011;8918;52.092;5.232;2022-08-06T14:19:56;2.95;;;1.00;;
17598;SDS011;8918;52.092;5.232;2022-08-06T14:22:21;2.60;;;1.10;;
17598;SDS011;8918;52.092;5.232;2022-08-06T14:24:47;4.72;;;0.98;;
17598;SDS011;8918;52.092;5.232;2022-08-06T14:27:12;1.73;;;1.10;;
17598;SDS011;8918;52.092;5.232;2022-08-06T14:29:38;1.30;;;1.00;;
17598;SDS011;8918;52.092;5.232;2022-08-06T14:32:04;2.67;;;1.15;;
17598;SDS011;8918;52.092;5.232;2022-08-06T14:34:30;2.20;;;1.25;;
17598;SDS011;8918;52.092;5.232;2022-08-06T14:36:56;1.30;;;0.93;;
17598;SDS011;8918;52.092;5.232;2022-08-06T14:39:22;1.10;;;1.00;;
17598;SDS011;8918;52.092;5.232;2022-08-06T14:41:48;1.30;;;1.20;;
17598;SDS011;8918;52.092;5.232;2022-08-06T14:44:32;1.38;;;1.08;;
17598;SDS011;8918;52.092;5.232;2022-08-06T14:47:16;1.50;;;1.27;;
17598;SDS011;8918;52.092;5.232;2022-08-06T14:49:42;2.10;;;1.27;;
17598;SDS011;8918;52.092;5.232;2022-08-06T14:52:08;1.63;;;1.08;;
17598;SDS011;8918;52.092;5.232;2022-08-06T14:54:34;1.50;;;1.10;;
17598;SDS011;8918;52.092;5.232;2022-08-06T14:57:05;1.77;;;1.20;;
17598;SDS011;8918;52.092;5.232;2022-08-06T14:59:32;2.20;;;1.10;;
17598;SDS011;8918;52.092;5.232;2022-08-06T15:01:57;3.53;;;1.45;;
17598;SDS011;8918;52.092;5.232;2022-08-06T15:04:23;2.53;;;1.10;;
17598;SDS011;8918;52.092;5.232;2022-08-06T15:06:49;1.30;;;1.20;;
17598;SDS011;8918;52.092;5.232;2022-08-06T15:09:18;2.70;;;1.20;;
17598;SDS011;8918;52.092;5.232;2022-08-06T15:11:43;1.80;;;1.30;;
17598;SDS011;8918;52.092;5.232;2022-08-06T15:14:09;2.47;;;1.25;;
17598;SDS011;8918;52.092;5.232;2022-08-06T15:16:35;1.92;;;1.38;;
17598;SDS011;8918;52.092;5.232;2022-08-06T15:19:00;1.77;;;1.38;;
17598;SDS011;8918;52.092;5.232;2022-08-06T15:21:26;1.98;;;1.20;;
17598;SDS011;8918;52.092;5.232;2022-08-06T15:23:51;1.88;;;1.40;;
17598;SDS011;8918;52.092;5.232;2022-08-06T15:26:19;2.05;;;1.40;;
17598;SDS011;8918;52.092;5.232;2022-08-06T15:28:45;1.95;;;1.55;;
17598;SDS011;8918;52.092;5.232;2022-08-06T15:31:11;1.70;;;1.50;;
17598;SDS011;8918;52.092;5.232;2022-08-06T15:33:36;1.77;;;1.30;;
17598;SDS011;8918;52.092;5.232;2022-08-06T15:36:05;2.00;;;1.40;;
17598;SDS011;8918;52.092;5.232;2022-08-06T15:38:31;1.75;;;1.40;;
17598;SDS011;8918;52.092;5.232;2022-08-06T15:40:57;1.92;;;1.40;;
17598;SDS011;8918;52.092;5.232;2022-08-06T15:43:23;2.25;;;1.60;;
17598;SDS011;8918;52.092;5.232;2022-08-06T15:45:52;1.70;;;1.52;;
17598;SDS011;8918;52.092;5.232;2022-08-06T15:48:18;2.92;;;1.40;;
17598;SDS011;8918;52.092;5.232;2022-08-06T15:50:46;2.60;;;1.58;;
17598;SDS011;8918;52.092;5.232;2022-08-06T15:53:12;2.78;;;1.45;;
17598;SDS011;8918;52.092;5.232;2022-08-06T15:55:39;3.33;;;1.60;;
17598;SDS011;8918;52.092;5.232;2022-08-06T15:58:05;1.70;;;1.35;;
17598;SDS011;8918;52.092;5.232;2022-08-06T16:00:31;4.75;;;1.50;;
17598;SDS011;8918;52.092;5.232;2022-08-06T16:02:58;1.60;;;1.50;;
17598;SDS011;8918;52.092;5.232;2022-08-06T16:05:24;4.20;;;1.60;;
17598;SDS011;8918;52.092;5.232;2022-08-06T16:07:49;2.85;;;1.60;;
17598;SDS011;8918;52.092;5.232;2022-08-06T16:10:15;3.30;;;1.42;;
17598;SDS011;8918;52.092;5.232;2022-08-06T16:12:40;2.78;;;1.38;;
17598;SDS011;8918;52.092;5.232;2022-08-06T16:15:07;1.40;;;1.30;;
17598;SDS011;8918;52.092;5.232;2022-08-06T16:17:33;2.67;;;1.40;;
17598;SDS011;8918;52.092;5.232;2022-08-06T16:19:59;1.98;;;1.20;;
17598;SDS011;8918;52.092;5.232;2022-08-06T16:22:25;2.60;;;1.40;;
17598;SDS011;8918;52.092;5.232;2022-08-06T16:24:50;2.40;;;1.38;;
17598;SDS011;8918;52.092;5.232;2022-08-06T16:27:16;1.70;;;1.38;;
17598;SDS011;8918;52.092;5.232;2022-08-06T16:29:46;1.88;;;1.20;;
17598;SDS011;8918;52.092;5.232;2022-08-06T16:32:12;1.92;;;1.20;;